Time,TemperatureF,DewpointF,PressureIn,WindDirection,WindDirectionDegrees,WindSpeedMPH,WindSpeedGustMPH,Humidity,HourlyPrecipIn,Conditions,Clouds,dailyrainin,SoftwareType,DateUTC
2013-02-21 00:01:00,2.5,-32.4,29.21,North,353,0.0,0.0,17,0.00,,,0.00,VWS V13.01,2013-02-21 06:01:00,
2013-02-21 00:06:00,2.8,-32.1,29.21,North,0,0.0,0.0,17,0.00,,,0.00,VWS V13.01,2013-02-21 06:06:00,
2013-02-21 00:11:00,2.3,-32.5,29.21,North,353,0.0,0.0,17,0.00,,,0.00,VWS V13.01,2013-02-21 06:11:00,
2013-02-21 00:16:00,1.6,-33.1,29.21,North,1,0.0,0.0,17,0.00,,,0.00,VWS V13.01,2013-02-21 06:16:00,
2013-02-21 00:21:00,2.3,-32.5,29.21,NNE,21,0.0,0.0,17,0.00,,,0.00,VWS V13.01,2013-02-21 06:21:00,
2013-02-21 00:26:00,1.9,-32.8,29.21,NNE,21,0.0,0.0,17,0.00,,,0.00,VWS V13.01,2013-02-21 06:26:00,
2013-02-21 00:31:00,1.9,-32.8,29.21,North,8,0.0,0.0,17,0.00,,,0.00,VWS V13.01,2013-02-21 06:31:00,
2013-02-21 00:36:00,1.4,-33.3,29.21,North,4,0.0,0.0,17,0.00,,,0.00,VWS V13.01,2013-02-21 06:36:00,
2013-02-21 00:41:00,0.3,-34.2,29.21,North,4,0.0,0.0,17,0.00,,,0.00,VWS V13.01,2013-02-21 06:41:00,
2013-02-21 00:46:00,-1.1,-35.4,29.21,North,3,0.0,0.0,17,0.00,,,0.00,VWS V13.01,2013-02-21 06:46:00,
2013-02-21 00:51:00,-1.7,-35.8,29.21,North,3,0.0,0.0,17,0.00,,,0.00,VWS V13.01,2013-02-21 06:51:00,
2013-02-21 00:56:00,-0.9,-35.2,29.21,North,357,0.0,0.0,17,0.00,,,0.00,VWS V13.01,2013-02-21 06:56:00,
2013-02-21 01:01:00,-0.4,-34.8,29.21,North,357,0.0,0.0,17,0.00,,,0.00,VWS V13.01,2013-02-21 07:01:00,
2013-02-21 01:06:00,-0.6,-34.9,29.21,North,357,0.0,0.0,17,0.00,,,0.00,VWS V13.01,2013-02-21 07:06:00,
2013-02-21 01:11:00,-0.6,-34.9,29.23,North,357,0.0,0.0,17,0.00,,,0.00,VWS V13.01,2013-02-21 07:11:00,
2013-02-21 01:16:00,-0.9,-35.2,29.23,North,357,0.0,0.0,17,0.00,,,0.00,VWS V13.01,2013-02-21 07:16:00,
2013-02-21 01:21:00,-0.2,-34.6,29.23,North,357,0.0,0.0,17,0.00,,,0.00,VWS V13.01,2013-02-21 07:21:00,
2013-02-21 01:26:00,1.0,-33.6,29.23,North,357,0.0,0.0,17,0.00,,,0.00,VWS V13.01,2013-02-21 07:26:00,
2013-02-21 01:31:00,1.8,-33.0,29.23,North,9,0.0,0.0,17,0.00,,,0.00,VWS V13.01,2013-02-21 07:31:00,
2013-02-21 01:36:00,2.5,-32.4,29.23,North,8,2.2,2.2,17,0.00,,,0.00,VWS V13.01,2013-02-21 07:36:00,
2013-02-21 01:41:00,2.5,-32.4,29.23,North,9,0.0,0.0,17,0.00,,,0.00,VWS V13.01,2013-02-21 07:41:00,
2013-02-21 01:46:00,1.9,-32.8,29.23,North,3,0.0,0.0,17,0.00,,,0.00,VWS V13.01,2013-02-21 07:46:00,
2013-02-21 01:51:00,1.9,-32.8,29.23,NNE,15,0.0,0.0,17,0.00,,,0.00,VWS V13.01,2013-02-21 07:51:00,
2013-02-21 01:56:00,2.3,-32.5,29.23,North,357,0.0,0.0,17,0.00,,,0.00,VWS V13.01,2013-02-21 07:56:00,
2013-02-21 02:01:00,2.8,-32.1,29.23,North,6,3.1,3.1,17,0.00,,,0.00,VWS V13.01,2013-02-21 08:01:00,
2013-02-21 02:06:00,3.7,-31.3,29.23,NNE,22,4.0,4.0,17,0.00,,,0.00,VWS V13.01,2013-02-21 08:06:00,
2013-02-21 02:11:00,4.5,-30.7,29.23,NNE,26,3.6,3.6,17,0.00,,,0.00,VWS V13.01,2013-02-21 08:11:00,
2013-02-21 02:16:00,4.5,-30.7,29.23,NNE,25,2.2,5.4,17,0.00,,,0.00,VWS V13.01,2013-02-21 08:16:00,
2013-02-21 02:21:00,4.5,-30.7,29.23,NNE,21,3.1,3.6,17,0.00,,,0.00,VWS V13.01,2013-02-21 08:21:00,
2013-02-21 02:26:00,4.5,-30.7,29.23,NNE,13,5.4,5.4,17,0.00,,,0.00,VWS V13.01,2013-02-21 08:26:00,
2013-02-21 02:31:00,3.9,-31.2,29.23,NE,34,0.0,2.2,17,0.00,,,0.00,VWS V13.01,2013-02-21 08:31:00,
2013-02-21 02:36:00,4.5,-30.7,29.23,NNE,21,4.9,4.9,17,0.00,,,0.00,VWS V13.01,2013-02-21 08:36:00,
2013-02-21 02:41:00,4.3,-30.9,29.23,NNE,24,4.0,4.9,17,0.00,,,0.00,VWS V13.01,2013-02-21 08:41:00,
2013-02-21 02:46:00,4.6,-30.6,29.23,NNE,23,4.9,4.9,17,0.00,,,0.00,VWS V13.01,2013-02-21 08:46:00,
2013-02-21 02:51:00,4.5,-30.7,29.23,NE,34,0.0,2.7,17,0.00,,,0.00,VWS V13.01,2013-02-21 08:51:00,
2013-02-21 02:56:00,4.3,-30.9,29.23,NNE,24,4.0,4.0,17,0.00,,,0.00,VWS V13.01,2013-02-21 08:56:00,
2013-02-21 03:01:00,5.0,-30.3,29.23,NE,37,3.6,3.6,17,0.00,,,0.00,VWS V13.01,2013-02-21 09:01:00,
2013-02-21 03:06:00,5.0,-30.3,29.23,NE,44,3.6,4.9,17,0.00,,,0.00,VWS V13.01,2013-02-21 09:06:00,
2013-02-21 03:11:00,4.6,-30.6,29.23,NNE,33,3.1,3.1,17,0.00,,,0.00,VWS V13.01,2013-02-21 09:11:00,
2013-02-21 03:16:00,4.5,-30.7,29.23,NNE,31,3.6,3.6,17,0.00,,,0.00,VWS V13.01,2013-02-21 09:16:00,
2013-02-21 03:21:00,4.3,-30.9,29.23,NE,36,3.1,3.1,17,0.00,,,0.00,VWS V13.01,2013-02-21 09:21:00,
2013-02-21 03:26:00,4.5,-30.7,29.23,NE,37,0.0,0.0,17,0.00,,,0.00,VWS V13.01,2013-02-21 09:26:00,
2013-02-21 03:31:00,4.3,-30.9,29.23,NNE,29,0.0,2.7,17,0.00,,,0.00,VWS V13.01,2013-02-21 09:31:00,
2013-02-21 03:36:00,3.9,-31.2,29.23,NNE,27,2.7,2.7,17,0.00,,,0.00,VWS V13.01,2013-02-21 09:36:00,
2013-02-21 03:41:00,3.7,-31.3,29.23,NNE,29,2.2,2.2,17,0.00,,,0.00,VWS V13.01,2013-02-21 09:41:00,
2013-02-21 03:46:00,4.1,-31.0,29.23,NNE,24,2.7,4.0,17,0.00,,,0.00,VWS V13.01,2013-02-21 09:46:00,
2013-02-21 03:51:00,4.1,-31.0,29.23,NNE,33,4.0,4.0,17,0.00,,,0.00,VWS V13.01,2013-02-21 09:51:00,
2013-02-21 03:56:00,4.1,-31.0,29.23,NNE,20,2.7,2.7,17,0.00,,,0.00,VWS V13.01,2013-02-21 09:56:00,
2013-02-21 04:01:00,4.3,-30.9,29.23,NNE,28,2.7,5.8,17,0.00,,,0.00,VWS V13.01,2013-02-21 10:01:00,
2013-02-21 04:06:00,4.5,-30.7,29.23,NNE,12,2.7,4.0,17,0.00,,,0.00,VWS V13.01,2013-02-21 10:06:00,
2013-02-21 04:11:00,4.1,-31.0,29.23,NNE,17,5.8,5.8,17,0.00,,,0.00,VWS V13.01,2013-02-21 10:11:00,
2013-02-21 04:16:00,4.5,-30.7,29.23,NE,46,3.6,4.0,17,0.00,,,0.00,VWS V13.01,2013-02-21 10:16:00,
2013-02-21 04:21:00,4.3,-30.9,29.23,NE,44,2.7,3.6,17,0.00,,,0.00,VWS V13.01,2013-02-21 10:21:00,
2013-02-21 04:26:00,4.3,-30.9,29.23,NE,51,4.0,5.4,17,0.00,,,0.00,VWS V13.01,2013-02-21 10:26:00,
2013-02-21 04:31:00,4.1,-31.0,29.23,NE,46,4.9,4.9,17,0.00,,,0.00,VWS V13.01,2013-02-21 10:31:00,
2013-02-21 04:36:00,3.7,-31.3,29.23,NNE,29,3.1,3.6,17,0.00,,,0.00,VWS V13.01,2013-02-21 10:36:00,
2013-02-21 04:41:00,3.9,-31.2,29.23,NNE,27,4.0,4.0,17,0.00,,,0.00,VWS V13.01,2013-02-21 10:41:00,
2013-02-21 04:46:00,3.9,-31.2,29.23,NNE,30,4.9,5.8,17,0.00,,,0.00,VWS V13.01,2013-02-21 10:46:00,
2013-02-21 04:51:00,3.7,-31.3,29.23,NE,37,3.1,4.9,17,0.00,,,0.00,VWS V13.01,2013-02-21 10:51:00,
2013-02-21 04:56:00,3.7,-31.3,29.21,NNE,27,3.6,4.9,17,0.00,,,0.00,VWS V13.01,2013-02-21 10:56:00,
2013-02-21 05:01:00,3.7,-31.3,29.21,NNE,31,6.3,6.3,17,0.00,,,0.00,VWS V13.01,2013-02-21 11:01:00,
2013-02-21 05:06:00,4.3,-30.9,29.21,NNE,24,5.8,8.1,17,0.00,,,0.00,VWS V13.01,2013-02-21 11:06:00,
2013-02-21 05:11:00,4.1,-31.0,29.21,NNE,18,3.6,5.8,17,0.00,,,0.00,VWS V13.01,2013-02-21 11:11:00,
2013-02-21 05:16:00,4.1,-31.0,29.21,NNE,15,4.9,5.8,17,0.00,,,0.00,VWS V13.01,2013-02-21 11:16:00,
2013-02-21 05:21:00,3.9,-31.2,29.21,NE,40,4.0,4.0,17,0.00,,,0.00,VWS V13.01,2013-02-21 11:21:00,
2013-02-21 05:26:00,3.7,-31.3,29.21,NE,37,3.1,4.0,17,0.00,,,0.00,VWS V13.01,2013-02-21 11:26:00,
2013-02-21 05:31:00,4.1,-31.0,29.21,NNE,30,5.8,5.8,17,0.00,,,0.00,VWS V13.01,2013-02-21 11:31:00,
2013-02-21 05:36:00,4.3,-30.9,29.21,NNE,28,5.8,6.7,17,0.00,,,0.00,VWS V13.01,2013-02-21 11:36:00,
2013-02-21 05:41:00,3.7,-31.3,29.18,NNE,14,4.0,7.2,17,0.00,,,0.00,VWS V13.01,2013-02-21 11:41:00,
2013-02-21 05:46:00,3.4,-31.6,29.18,NE,39,6.3,6.3,17,0.00,,,0.00,VWS V13.01,2013-02-21 11:46:00,
2013-02-21 05:51:00,3.4,-31.6,29.18,NNE,30,3.1,3.6,17,0.00,,,0.00,VWS V13.01,2013-02-21 11:51:00,
2013-02-21 05:56:00,3.2,-31.8,29.18,NE,34,3.6,5.4,17,0.00,,,0.00,VWS V13.01,2013-02-21 11:56:00,
2013-02-21 06:01:00,2.5,-32.4,29.18,NNE,21,4.0,4.0,17,0.00,,,0.00,VWS V13.01,2013-02-21 12:01:00,
2013-02-21 06:06:00,2.5,-32.4,29.18,NE,46,3.1,3.1,17,0.00,,,0.00,VWS V13.01,2013-02-21 12:06:00,
2013-02-21 06:11:00,2.3,-32.5,29.15,NNE,18,6.7,6.7,17,0.00,,,0.00,VWS V13.01,2013-02-21 12:11:00,
2013-02-21 06:16:00,1.6,-33.1,29.15,NNE,12,2.7,3.6,17,0.00,,,0.00,VWS V13.01,2013-02-21 12:16:00,
2013-02-21 06:21:00,1.9,-32.8,29.15,NNE,22,8.1,8.1,17,0.00,,,0.00,VWS V13.01,2013-02-21 12:21:00,
2013-02-21 06:26:00,1.6,-33.1,29.15,NE,48,0.0,3.6,17,0.00,,,0.00,VWS V13.01,2013-02-21 12:26:00,
2013-02-21 06:31:00,0.7,-33.9,29.15,ENE,62,0.0,0.0,17,0.00,,,0.00,VWS V13.01,2013-02-21 12:31:00,
2013-02-21 06:36:00,1.2,-33.4,29.15,East,86,0.0,0.0,17,0.00,,,0.00,VWS V13.01,2013-02-21 12:36:00,
2013-02-21 06:41:00,1.9,-32.8,29.21,SE,143,5.4,5.4,17,0.00,,,0.00,VWS V13.01,2013-02-21 12:41:00,
2013-02-21 06:46:00,1.8,-33.0,29.21,SSE,148,5.8,5.8,17,0.00,,,0.00,VWS V13.01,2013-02-21 12:46:00,
2013-02-21 06:51:00,1.6,-33.1,29.21,SE,145,4.9,4.9,17,0.00,,,0.00,VWS V13.01,2013-02-21 12:51:00,
2013-02-21 06:56:00,1.9,-32.8,29.26,SE,127,2.7,3.6,17,0.00,,,0.00,VWS V13.01,2013-02-21 12:56:00,
2013-02-21 07:01:00,1.6,-33.1,29.26,ESE,106,0.0,0.0,17,0.00,,,0.00,VWS V13.01,2013-02-21 13:01:00,
2013-02-21 07:06:00,1.6,-33.1,29.26,ESE,116,0.0,0.0,17,0.00,,,0.00,VWS V13.01,2013-02-21 13:06:00,
2013-02-21 07:11:00,1.2,-33.4,29.26,ESE,107,0.0,0.0,17,0.00,,,0.00,VWS V13.01,2013-02-21 13:11:00,
2013-02-21 07:16:00,0.9,-33.7,29.26,NNE,32,0.0,0.0,17,0.00,,,0.00,VWS V13.01,2013-02-21 13:16:00,
2013-02-21 07:21:00,1.0,-33.6,29.26,North,353,2.2,2.7,17,0.00,,,0.00,VWS V13.01,2013-02-21 13:21:00,
2013-02-21 07:26:00,1.2,-33.4,29.26,North,357,2.7,2.7,17,0.00,,,0.00,VWS V13.01,2013-02-21 13:26:00,
2013-02-21 07:31:00,1.6,-33.1,29.26,NNE,16,0.0,0.0,17,0.00,,,0.00,VWS V13.01,2013-02-21 13:31:00,
2013-02-21 07:36:00,2.5,-32.4,29.26,NE,35,2.2,2.7,17,0.00,,,0.00,VWS V13.01,2013-02-21 13:36:00,
2013-02-21 07:41:00,2.7,-32.2,29.23,NNE,30,0.0,0.0,17,0.00,,,0.00,VWS V13.01,2013-02-21 13:41:00,
2013-02-21 07:46:00,2.8,-32.1,29.23,North,357,0.0,0.0,17,0.00,,,0.00,VWS V13.01,2013-02-21 13:46:00,
2013-02-21 07:51:00,2.8,-32.1,29.23,NNE,15,2.7,4.0,17,0.00,,,0.00,VWS V13.01,2013-02-21 13:51:00,
2013-02-21 07:56:00,3.6,-31.5,29.23,NNE,23,2.2,4.0,17,0.00,,,0.00,VWS V13.01,2013-02-21 13:56:00,
2013-02-21 08:01:00,4.3,-30.9,29.23,North,357,4.0,4.0,17,0.00,,,0.00,VWS V13.01,2013-02-21 14:01:00,
2013-02-21 08:06:00,4.6,-30.6,29.23,NNE,16,2.7,5.4,17,0.00,,,0.00,VWS V13.01,2013-02-21 14:06:00,
2013-02-21 08:11:00,4.8,-30.4,29.23,NNE,19,3.6,4.9,17,0.00,,,0.00,VWS V13.01,2013-02-21 14:11:00,
2013-02-21 08:16:00,5.4,-30.0,29.23,NNE,12,0.0,2.2,17,0.00,,,0.00,VWS V13.01,2013-02-21 14:16:00,
2013-02-21 08:21:00,5.4,-30.0,29.23,North,7,4.5,4.5,17,0.00,,,0.00,VWS V13.01,2013-02-21 14:21:00,
2013-02-21 08:26:00,5.9,-29.5,29.21,North,7,3.1,3.6,17,0.00,,,0.00,VWS V13.01,2013-02-21 14:26:00,
2013-02-21 08:31:00,6.3,-29.2,29.21,NNE,22,3.1,3.1,17,0.00,,,0.00,VWS V13.01,2013-02-21 14:31:00,
2013-02-21 08:36:00,7.0,-28.6,29.21,NNE,16,3.1,3.6,17,0.00,,,0.00,VWS V13.01,2013-02-21 14:36:00,
2013-02-21 08:41:00,6.8,-28.8,29.23,NNE,33,3.6,4.9,17,0.00,,,0.00,VWS V13.01,2013-02-21 14:41:00,
2013-02-21 08:46:00,7.7,-28.0,29.23,NNW,338,2.7,3.1,17,0.00,,,0.00,VWS V13.01,2013-02-21 14:46:00,
2013-02-21 08:51:00,7.0,-28.6,29.23,NNE,29,3.6,5.8,17,0.00,,,0.00,VWS V13.01,2013-02-21 14:51:00,
2013-02-21 08:56:00,7.7,-28.0,29.21,NE,49,3.1,4.0,17,0.00,,,0.00,VWS V13.01,2013-02-21 14:56:00,
2013-02-21 09:01:00,8.2,-27.6,29.21,NNE,24,4.0,4.0,17,0.00,,,0.00,VWS V13.01,2013-02-21 15:01:00,
2013-02-21 09:06:00,8.1,-27.7,29.21,NE,34,5.8,5.8,17,0.00,,,0.00,VWS V13.01,2013-02-21 15:06:00,
2013-02-21 09:11:00,8.8,-27.1,29.21,NE,39,4.0,4.0,17,0.00,,,0.00,VWS V13.01,2013-02-21 15:11:00,
2013-02-21 09:16:00,9.5,-26.5,29.21,North,8,3.1,4.0,17,0.00,,,0.00,VWS V13.01,2013-02-21 15:16:00,
2013-02-21 09:21:00,11.1,-25.2,29.21,ENE,64,2.7,3.6,17,0.00,,,0.00,VWS V13.01,2013-02-21 15:21:00,
2013-02-21 09:26:00,10.0,-26.1,29.21,North,10,4.0,5.8,17,0.00,,,0.00,VWS V13.01,2013-02-21 15:26:00,
2013-02-21 09:31:00,10.0,-26.1,29.21,NE,35,4.9,5.8,17,0.00,,,0.00,VWS V13.01,2013-02-21 15:31:00,
2013-02-21 09:36:00,11.3,-25.0,29.21,NNE,30,7.6,7.6,17,0.00,,,0.00,VWS V13.01,2013-02-21 15:36:00,
2013-02-21 09:41:00,10.2,-25.9,29.18,NNE,31,4.0,5.4,17,0.00,,,0.00,VWS V13.01,2013-02-21 15:41:00,
2013-02-21 09:46:00,12.2,-24.3,29.18,NNE,20,5.4,5.4,17,0.00,,,0.00,VWS V13.01,2013-02-21 15:46:00,
2013-02-21 09:51:00,12.2,-24.3,29.18,NE,40,3.6,5.4,17,0.00,,,0.00,VWS V13.01,2013-02-21 15:51:00,
2013-02-21 09:56:00,13.3,-23.4,29.18,ENE,60,3.6,5.8,17,0.00,,,0.00,VWS V13.01,2013-02-21 15:56:00,
2013-02-21 10:01:00,13.8,-22.9,29.18,ENE,60,3.6,5.4,17,0.00,,,0.00,VWS V13.01,2013-02-21 16:01:00,
2013-02-21 10:06:00,11.8,-24.6,29.18,NE,52,6.3,8.7,17,0.00,,,0.00,VWS V13.01,2013-02-21 16:06:00,
2013-02-21 10:11:00,13.6,-23.1,29.18,ENE,68,4.0,4.0,17,0.00,,,0.00,VWS V13.01,2013-02-21 16:11:00,
2013-02-21 10:16:00,14.4,-23.6,29.18,ENE,73,6.3,6.3,16,0.00,,,0.00,VWS V13.01,2013-02-21 16:16:00,
2013-02-21 10:21:00,12.7,-25.0,29.18,NE,54,4.0,4.0,16,0.00,,,0.00,VWS V13.01,2013-02-21 16:21:00,
2013-02-21 10:26:00,14.7,-23.3,29.21,NE,49,4.0,4.0,16,0.00,,,0.00,VWS V13.01,2013-02-21 16:26:00,
2013-02-21 10:31:00,16.0,-22.3,29.21,East,87,5.4,5.4,16,0.00,,,0.00,VWS V13.01,2013-02-21 16:31:00,
2013-02-21 10:36:00,16.2,-22.1,29.21,East,84,4.0,6.3,16,0.00,,,0.00,VWS V13.01,2013-02-21 16:36:00,
2013-02-21 10:41:00,16.0,-22.3,29.21,NNE,27,4.0,4.0,16,0.00,,,0.00,VWS V13.01,2013-02-21 16:41:00,
2013-02-21 10:46:00,17.4,-21.1,29.21,NE,44,2.7,2.7,16,0.00,,,0.00,VWS V13.01,2013-02-21 16:46:00,
2013-02-21 10:51:00,20.1,-17.7,29.21,East,84,2.7,2.7,17,0.00,,,0.00,VWS V13.01,2013-02-21 16:51:00,
2013-02-21 10:56:00,19.8,-18.0,29.21,ENE,75,4.9,4.9,17,0.00,,,0.00,VWS V13.01,2013-02-21 16:56:00,
2013-02-21 11:01:00,19.9,-17.8,29.21,NNE,33,4.0,4.0,17,0.00,,,0.00,VWS V13.01,2013-02-21 17:01:00,
2013-02-21 11:06:00,19.2,-17.3,29.21,ENE,70,3.6,4.0,18,0.00,,,0.00,VWS V13.01,2013-02-21 17:06:00,
2013-02-21 11:11:00,16.7,-19.4,29.21,NNE,29,8.1,8.1,18,0.00,,,0.00,VWS V13.01,2013-02-21 17:11:00,
2013-02-21 11:16:00,16.5,-21.8,29.21,NE,44,5.4,5.8,16,0.00,,,0.00,VWS V13.01,2013-02-21 17:16:00,
2013-02-21 11:21:00,17.8,-22.0,29.21,NE,46,3.6,5.4,15,0.00,,,0.00,VWS V13.01,2013-02-21 17:21:00,
2013-02-21 11:26:00,17.1,-19.1,29.21,NE,52,5.8,5.8,18,0.00,,,0.00,VWS V13.01,2013-02-21 17:26:00,
2013-02-21 11:31:00,18.3,-18.1,29.21,NE,56,5.4,5.4,18,0.00,,,0.00,VWS V13.01,2013-02-21 17:31:00,
2013-02-21 11:36:00,20.5,-17.4,29.21,NE,51,0.0,3.1,17,0.00,,,0.00,VWS V13.01,2013-02-21 17:36:00,
2013-02-21 11:41:00,19.9,-17.8,29.21,NE,39,4.0,5.8,17,0.00,,,0.00,VWS V13.01,2013-02-21 17:41:00,
2013-02-21 11:46:00,18.5,-17.9,29.21,NE,34,8.1,8.1,18,0.00,,,0.00,VWS V13.01,2013-02-21 17:46:00,
2013-02-21 11:51:00,19.8,-18.0,29.21,NE,45,3.6,3.6,17,0.00,,,0.00,VWS V13.01,2013-02-21 17:51:00,
2013-02-21 11:56:00,20.7,-17.2,29.18,NNE,22,4.0,5.4,17,0.00,,,0.00,VWS V13.01,2013-02-21 17:56:00,
2013-02-21 12:01:00,19.2,-17.3,29.18,NE,43,7.6,7.6,18,0.00,,,0.00,VWS V13.01,2013-02-21 18:01:00,
2013-02-21 12:06:00,20.5,-17.4,29.18,NNE,25,3.6,4.0,17,0.00,,,0.00,VWS V13.01,2013-02-21 18:06:00,
2013-02-21 12:11:00,22.8,-15.4,29.18,NE,49,3.6,4.0,17,0.00,,,0.00,VWS V13.01,2013-02-21 18:11:00,
2013-02-21 12:16:00,20.1,-17.7,29.18,NE,53,6.3,8.1,17,0.00,,,0.00,VWS V13.01,2013-02-21 18:16:00,
2013-02-21 12:21:00,20.8,-17.1,29.18,NNE,17,6.7,6.7,17,0.00,,,0.00,VWS V13.01,2013-02-21 18:21:00,
2013-02-21 12:26:00,21.4,-16.6,29.18,NE,48,2.2,5.4,17,0.00,,,0.00,VWS V13.01,2013-02-21 18:26:00,
2013-02-21 12:31:00,22.5,-15.8,29.18,NE,45,4.0,4.9,17,0.00,,,0.00,VWS V13.01,2013-02-21 18:31:00,
2013-02-21 12:36:00,19.9,-17.8,29.18,NE,56,4.0,6.3,17,0.00,,,0.00,VWS V13.01,2013-02-21 18:36:00,
2013-02-21 12:41:00,21.6,-16.5,29.15,NNE,31,3.6,4.0,17,0.00,,,0.00,VWS V13.01,2013-02-21 18:41:00,
2013-02-21 12:46:00,21.4,-16.6,29.15,NE,47,5.4,5.4,17,0.00,,,0.00,VWS V13.01,2013-02-21 18:46:00,
2013-02-21 12:51:00,21.2,-16.8,29.15,NE,35,3.6,4.0,17,0.00,,,0.00,VWS V13.01,2013-02-21 18:51:00,
2013-02-21 12:56:00,21.9,-16.2,29.15,ENE,69,4.9,4.9,17,0.00,,,0.00,VWS V13.01,2013-02-21 18:56:00,
2013-02-21 13:01:00,22.8,-15.4,29.15,NNE,33,5.8,5.8,17,0.00,,,0.00,VWS V13.01,2013-02-21 19:01:00,
2013-02-21 13:06:00,21.2,-16.8,29.15,North,350,5.8,6.3,17,0.00,,,0.00,VWS V13.01,2013-02-21 19:06:00,
2013-02-21 13:11:00,21.9,-16.2,29.15,NNE,25,7.2,7.2,17,0.00,,,0.00,VWS V13.01,2013-02-21 19:11:00,
2013-02-21 13:16:00,22.8,-15.4,29.15,NNE,17,5.8,5.8,17,0.00,,,0.00,VWS V13.01,2013-02-21 19:16:00,
2013-02-21 13:21:00,23.0,-15.3,29.15,ENE,59,3.6,4.0,17,0.00,,,0.00,VWS V13.01,2013-02-21 19:21:00,
2013-02-21 13:26:00,22.6,-15.6,29.15,North,0,3.6,3.6,17,0.00,,,0.00,VWS V13.01,2013-02-21 19:26:00,
2013-02-21 13:31:00,21.4,-16.6,29.15,NNE,23,4.0,4.0,17,0.00,,,0.00,VWS V13.01,2013-02-21 19:31:00,
2013-02-21 13:36:00,20.8,-17.1,29.15,NE,54,5.4,5.8,17,0.00,,,0.00,VWS V13.01,2013-02-21 19:36:00,
2013-02-21 13:41:00,23.4,-15.0,29.12,NE,46,4.0,4.0,17,0.00,,,0.00,VWS V13.01,2013-02-21 19:41:00,
2013-02-21 13:46:00,22.1,-16.0,29.12,NE,37,5.4,5.4,17,0.00,,,0.00,VWS V13.01,2013-02-21 19:46:00,
2013-02-21 13:51:00,21.6,-16.5,29.12,NE,39,5.4,5.4,17,0.00,,,0.00,VWS V13.01,2013-02-21 19:51:00,
2013-02-21 13:56:00,22.6,-15.6,29.12,NNE,27,3.1,3.1,17,0.00,,,0.00,VWS V13.01,2013-02-21 19:56:00,
2013-02-21 14:01:00,22.5,-15.8,29.12,NE,46,3.6,3.6,17,0.00,,,0.00,VWS V13.01,2013-02-21 20:01:00,
2013-02-21 14:06:00,21.4,-16.6,29.12,NE,34,4.0,8.3,17,0.00,,,0.00,VWS V13.01,2013-02-21 20:06:00,
2013-02-21 14:11:00,21.2,-16.8,29.12,NE,35,6.3,6.3,17,0.00,,,0.00,VWS V13.01,2013-02-21 20:11:00,
2013-02-21 14:16:00,21.7,-16.4,29.12,NE,46,2.7,2.7,17,0.00,,,0.00,VWS V13.01,2013-02-21 20:16:00,
2013-02-21 14:21:00,23.2,-15.2,29.12,North,2,4.9,4.9,17,0.00,,,0.00,VWS V13.01,2013-02-21 20:21:00,
2013-02-21 14:26:00,22.3,-15.9,29.12,ENE,64,4.9,5.4,17,0.00,,,0.00,VWS V13.01,2013-02-21 20:26:00,
2013-02-21 14:31:00,23.5,-14.9,29.12,NE,55,3.1,3.1,17,0.00,,,0.00,VWS V13.01,2013-02-21 20:31:00,
2013-02-21 14:37:00,22.1,-16.0,29.12,NE,48,6.3,6.3,17,0.00,,,0.00,VWS V13.01,2013-02-21 20:37:00,
2013-02-21 14:42:00,22.1,-16.0,29.12,ESE,109,5.4,5.4,17,0.00,,,0.00,VWS V13.01,2013-02-21 20:42:00,
2013-02-21 14:47:00,21.2,-16.8,29.12,NE,35,5.8,8.1,17,0.00,,,0.00,VWS V13.01,2013-02-21 20:47:00,
2013-02-21 14:52:00,21.6,-16.5,29.12,NE,45,5.4,5.4,17,0.00,,,0.00,VWS V13.01,2013-02-21 20:52:00,
2013-02-21 14:57:00,22.3,-15.9,29.09,NE,38,5.4,5.8,17,0.00,,,0.00,VWS V13.01,2013-02-21 20:57:00,
2013-02-21 15:02:00,22.1,-16.0,29.09,NE,54,4.9,4.9,17,0.00,,,0.00,VWS V13.01,2013-02-21 21:02:00,
2013-02-21 15:07:00,21.4,-16.6,29.09,North,357,7.6,7.6,17,0.00,,,0.00,VWS V13.01,2013-02-21 21:07:00,
2013-02-21 15:12:00,21.2,-16.8,29.09,North,0,5.8,8.1,17,0.00,,,0.00,VWS V13.01,2013-02-21 21:12:00,
2013-02-21 15:17:00,21.2,-16.8,29.09,NE,38,6.3,8.1,17,0.00,,,0.00,VWS V13.01,2013-02-21 21:17:00,
2013-02-21 15:22:00,21.2,-16.8,29.09,North,3,4.9,5.8,17,0.00,,,0.00,VWS V13.01,2013-02-21 21:22:00,
2013-02-21 15:27:00,20.3,-17.5,29.09,NE,53,5.4,8.3,17,0.00,,,0.00,VWS V13.01,2013-02-21 21:27:00,
2013-02-21 15:32:00,21.0,-16.9,29.09,NE,35,3.6,5.4,17,0.00,,,0.00,VWS V13.01,2013-02-21 21:32:00,
2013-02-21 15:37:00,21.4,-16.6,29.09,NE,45,5.4,5.4,17,0.00,,,0.00,VWS V13.01,2013-02-21 21:37:00,
2013-02-21 15:42:00,21.2,-16.8,29.09,NE,44,3.6,4.9,17,0.00,,,0.00,VWS V13.01,2013-02-21 21:42:00,
2013-02-21 15:47:00,21.2,-16.8,29.09,NE,34,4.0,5.4,17,0.00,,,0.00,VWS V13.01,2013-02-21 21:47:00,
2013-02-21 15:52:00,20.8,-17.1,29.09,ENE,68,6.3,7.6,17,0.00,,,0.00,VWS V13.01,2013-02-21 21:52:00,
2013-02-21 15:57:00,21.0,-16.9,29.09,ENE,71,12.3,12.3,17,0.00,,,0.00,VWS V13.01,2013-02-21 21:57:00,
2013-02-21 16:02:00,20.8,-17.1,29.09,NE,51,6.3,6.3,17,0.00,,,0.00,VWS V13.01,2013-02-21 22:02:00,
2013-02-21 16:07:00,21.0,-16.9,29.09,NE,34,4.0,4.9,17,0.00,,,0.00,VWS V13.01,2013-02-21 22:07:00,
2013-02-21 16:12:00,20.8,-17.1,29.09,NNE,21,6.7,10.5,17,0.00,,,0.00,VWS V13.01,2013-02-21 22:12:00,
2013-02-21 16:17:00,21.2,-16.8,29.09,NE,37,5.8,6.3,17,0.00,,,0.00,VWS V13.01,2013-02-21 22:17:00,
2013-02-21 16:22:00,20.8,-17.1,29.09,NNE,27,5.8,8.1,17,0.00,,,0.00,VWS V13.01,2013-02-21 22:22:00,
2013-02-21 16:26:00,20.8,-19.5,29.09,ENE,57,4.0,5.4,15,0.00,,,0.00,VWS V13.01,2013-02-21 22:26:00,
2013-02-21 16:31:00,20.7,-19.7,29.09,NNE,31,3.1,3.1,15,0.00,,,0.00,VWS V13.01,2013-02-21 22:31:00,
2013-02-21 16:37:00,20.7,-19.7,29.09,ENE,61,5.8,5.8,15,0.00,,,0.00,VWS V13.01,2013-02-21 22:37:00,
2013-02-21 16:42:00,20.5,-19.8,29.09,North,8,5.4,5.4,15,0.00,,,0.00,VWS V13.01,2013-02-21 22:42:00,
2013-02-21 16:47:00,20.7,-19.7,29.09,NNE,23,5.8,5.8,15,0.00,,,0.00,VWS V13.01,2013-02-21 22:47:00,
2013-02-21 16:52:00,20.7,-19.7,29.09,NE,38,3.1,3.6,15,0.00,,,0.00,VWS V13.01,2013-02-21 22:52:00,
2013-02-21 16:57:00,20.7,-19.7,29.09,NE,36,3.1,5.8,15,0.00,,,0.00,VWS V13.01,2013-02-21 22:57:00,
2013-02-21 17:02:00,20.5,-19.8,29.09,NNE,12,3.1,4.9,15,0.00,,,0.00,VWS V13.01,2013-02-21 23:02:00,
2013-02-21 17:07:00,20.5,-19.8,29.09,NNE,22,5.4,5.4,15,0.00,,,0.00,VWS V13.01,2013-02-21 23:07:00,
2013-02-21 17:12:00,20.3,-20.0,29.06,NNE,17,3.6,3.6,15,0.00,,,0.00,VWS V13.01,2013-02-21 23:12:00,
2013-02-21 17:17:00,20.1,-20.1,29.06,NE,50,4.0,4.5,15,0.00,,,0.00,VWS V13.01,2013-02-21 23:17:00,
2013-02-21 17:22:00,19.9,-20.2,29.06,North,8,3.6,4.0,15,0.00,,,0.00,VWS V13.01,2013-02-21 23:22:00,
2013-02-21 17:27:00,19.9,-20.2,29.06,North,0,3.1,3.1,15,0.00,,,0.00,VWS V13.01,2013-02-21 23:27:00,
2013-02-21 17:32:00,19.8,-20.4,29.06,NE,41,2.7,4.0,15,0.00,,,0.00,VWS V13.01,2013-02-21 23:32:00,
2013-02-21 17:37:00,19.8,-20.4,29.06,NNE,15,4.0,4.0,15,0.00,,,0.00,VWS V13.01,2013-02-21 23:37:00,
2013-02-21 17:42:00,19.8,-20.4,29.06,NNE,32,3.6,5.8,15,0.00,,,0.00,VWS V13.01,2013-02-21 23:42:00,
2013-02-21 17:47:00,19.6,-20.5,29.06,North,4,2.7,3.6,15,0.00,,,0.00,VWS V13.01,2013-02-21 23:47:00,
2013-02-21 17:52:00,19.6,-20.5,29.06,NNE,21,4.5,5.8,15,0.00,,,0.00,VWS V13.01,2013-02-21 23:52:00,
2013-02-21 17:57:00,19.8,-20.4,29.06,NE,54,6.7,6.7,15,0.00,,,0.00,VWS V13.01,2013-02-21 23:57:00,
2013-02-21 18:02:00,19.8,-20.4,29.06,NNE,24,5.4,5.4,15,0.00,,,0.00,VWS V13.01,2013-02-22 00:02:00,
2013-02-21 18:07:00,19.8,-20.4,29.06,NNE,21,4.9,5.8,15,0.00,,,0.00,VWS V13.01,2013-02-22 00:07:00,
2013-02-21 18:12:00,19.8,-20.4,29.06,NE,46,5.8,5.8,15,0.00,,,0.00,VWS V13.01,2013-02-22 00:12:00,
2013-02-21 18:17:00,19.8,-20.4,29.06,NNE,27,6.3,7.2,15,0.00,,,0.00,VWS V13.01,2013-02-22 00:17:00,
2013-02-21 18:22:00,19.8,-20.4,29.06,ENE,65,4.0,5.4,15,0.00,,,0.00,VWS V13.01,2013-02-22 00:22:00,
2013-02-21 18:27:00,19.6,-20.5,29.03,NNE,21,4.0,4.0,15,0.00,,,0.00,VWS V13.01,2013-02-22 00:27:00,
2013-02-21 18:32:00,19.6,-20.5,29.03,NE,38,3.1,3.1,15,0.00,,,0.00,VWS V13.01,2013-02-22 00:32:00,
2013-02-21 18:37:00,19.8,-20.4,29.03,NE,35,2.7,4.0,15,0.00,,,0.00,VWS V13.01,2013-02-22 00:37:00,
2013-02-21 18:42:00,19.6,-20.5,29.03,NNE,28,3.1,3.1,15,0.00,,,0.00,VWS V13.01,2013-02-22 00:42:00,
2013-02-21 18:47:00,19.8,-20.4,29.03,NE,39,5.4,5.4,15,0.00,,,0.00,VWS V13.01,2013-02-22 00:47:00,
2013-02-21 18:52:00,19.8,-20.4,29.03,NNE,31,3.6,3.6,15,0.00,,,0.00,VWS V13.01,2013-02-22 00:52:00,
2013-02-21 18:57:00,19.9,-20.2,29.03,NNE,22,6.3,6.3,15,0.00,,,0.00,VWS V13.01,2013-02-22 00:57:00,
2013-02-21 19:02:00,19.6,-20.5,29.03,NNE,22,3.1,3.6,15,0.00,,,0.00,VWS V13.01,2013-02-22 01:02:00,
2013-02-21 19:07:00,19.4,-20.7,29.03,NNE,18,2.2,3.6,15,0.00,,,0.00,VWS V13.01,2013-02-22 01:07:00,
2013-02-21 19:12:00,19.4,-20.7,29.03,NNE,27,3.6,3.6,15,0.00,,,0.00,VWS V13.01,2013-02-22 01:12:00,
2013-02-21 19:17:00,19.4,-20.7,29.03,NNE,30,0.0,0.0,15,0.00,,,0.00,VWS V13.01,2013-02-22 01:17:00,
2013-02-21 19:22:00,19.4,-20.7,29.03,North,353,2.7,3.6,15,0.00,,,0.00,VWS V13.01,2013-02-22 01:22:00,
2013-02-21 19:27:00,19.4,-20.7,29.03,NNE,14,2.7,5.8,15,0.00,,,0.00,VWS V13.01,2013-02-22 01:27:00,
2013-02-21 19:32:00,19.6,-20.5,29.03,North,0,2.7,4.9,15,0.00,,,0.00,VWS V13.01,2013-02-22 01:32:00,
2013-02-21 19:37:00,19.6,-20.5,29.03,NNE,27,0.0,3.1,15,0.00,,,0.00,VWS V13.01,2013-02-22 01:37:00,
2013-02-21 19:42:00,19.6,-20.5,29.00,NNW,331,2.7,3.6,15,0.00,,,0.00,VWS V13.01,2013-02-22 01:42:00,
2013-02-21 19:47:00,19.8,-20.4,29.00,North,2,2.2,3.6,15,0.00,,,0.00,VWS V13.01,2013-02-22 01:47:00,
2013-02-21 19:52:00,19.8,-20.4,29.00,NNE,26,2.2,5.8,15,0.00,,,0.00,VWS V13.01,2013-02-22 01:52:00,
2013-02-21 19:57:00,19.8,-20.4,29.00,NNE,21,2.7,4.0,15,0.00,,,0.00,VWS V13.01,2013-02-22 01:57:00,
2013-02-21 20:02:00,19.8,-20.4,29.00,NNE,33,3.6,3.6,15,0.00,,,0.00,VWS V13.01,2013-02-22 02:02:00,
2013-02-21 20:07:00,19.8,-20.4,29.00,North,2,4.0,4.0,15,0.00,,,0.00,VWS V13.01,2013-02-22 02:07:00,
2013-02-21 20:12:00,19.8,-20.4,29.00,North,7,2.2,2.7,15,0.00,,,0.00,VWS V13.01,2013-02-22 02:12:00,
2013-02-21 20:17:00,19.9,-20.2,29.00,NNE,23,3.1,3.1,15,0.00,,,0.00,VWS V13.01,2013-02-22 02:17:00,
2013-02-21 20:22:00,19.8,-20.4,29.00,NNE,20,2.7,2.7,15,0.00,,,0.00,VWS V13.01,2013-02-22 02:22:00,
2013-02-21 20:27:00,19.8,-20.4,29.00,NE,42,3.6,3.6,15,0.00,,,0.00,VWS V13.01,2013-02-22 02:27:00,
2013-02-21 20:32:00,19.8,-20.4,29.00,NNE,25,2.7,2.7,15,0.00,,,0.00,VWS V13.01,2013-02-22 02:32:00,
2013-02-21 20:37:00,19.8,-20.4,29.00,NNE,17,3.1,3.1,15,0.00,,,0.00,VWS V13.01,2013-02-22 02:37:00,
2013-02-21 20:42:00,19.8,-20.4,29.00,NNE,13,0.0,0.0,15,0.00,,,0.00,VWS V13.01,2013-02-22 02:42:00,
2013-02-21 20:47:00,19.8,-20.4,29.00,NNE,33,0.0,3.1,15,0.00,,,0.00,VWS V13.01,2013-02-22 02:47:00,
2013-02-21 20:52:00,19.6,-20.5,29.00,NNE,33,0.0,0.0,15,0.00,,,0.00,VWS V13.01,2013-02-22 02:52:00,
2013-02-21 20:57:00,19.6,-20.5,29.00,NNE,23,0.0,0.0,15,0.00,,,0.00,VWS V13.01,2013-02-22 02:57:00,
2013-02-21 21:02:00,19.4,-20.7,29.00,NNE,15,0.0,0.0,15,0.00,,,0.00,VWS V13.01,2013-02-22 03:02:00,
2013-02-21 21:07:00,19.4,-20.7,29.00,NNE,27,0.0,0.0,15,0.00,,,0.00,VWS V13.01,2013-02-22 03:07:00,
2013-02-21 21:12:00,19.6,-20.5,29.00,NNE,12,0.0,2.7,15,0.00,,,0.00,VWS V13.01,2013-02-22 03:12:00,
2013-02-21 21:17:00,19.6,-20.5,29.00,NNE,12,0.0,0.0,15,0.00,,,0.00,VWS V13.01,2013-02-22 03:17:00,
2013-02-21 21:22:00,19.6,-20.5,29.00,North,2,2.2,2.2,15,0.00,,,0.00,VWS V13.01,2013-02-22 03:22:00,
2013-02-21 21:27:00,19.8,-20.4,29.00,NNE,33,0.0,0.0,15,0.00,,,0.00,VWS V13.01,2013-02-22 03:27:00,
2013-02-21 21:32:00,19.8,-20.4,29.00,NE,37,0.0,0.0,15,0.00,,,0.00,VWS V13.01,2013-02-22 03:32:00,
2013-02-21 21:37:00,19.9,-20.2,29.00,NNE,33,2.2,3.1,15,0.00,,,0.00,VWS V13.01,2013-02-22 03:37:00,
2013-02-21 21:42:00,20.1,-20.1,29.00,NNE,28,2.2,2.7,15,0.00,,,0.00,VWS V13.01,2013-02-22 03:42:00,
2013-02-21 21:47:00,20.3,-20.0,29.00,NE,34,2.7,2.7,15,0.00,,,0.00,VWS V13.01,2013-02-22 03:47:00,
2013-02-21 21:52:00,20.3,-20.0,29.00,North,8,3.1,4.0,15,0.00,,,0.00,VWS V13.01,2013-02-22 03:52:00,
2013-02-21 21:57:00,20.3,-20.0,28.97,NNE,23,2.7,2.7,15,0.00,,,0.00,VWS V13.01,2013-02-22 03:57:00,
2013-02-21 22:02:00,20.5,-19.8,28.97,NE,50,0.0,2.7,15,0.00,,,0.00,VWS V13.01,2013-02-22 04:02:00,
2013-02-21 22:07:00,20.7,-19.7,28.97,North,357,0.0,3.1,15,0.00,,,0.00,VWS V13.01,2013-02-22 04:07:00,
2013-02-21 22:12:00,20.7,-19.7,28.97,North,7,2.2,2.2,15,0.00,,,0.00,VWS V13.01,2013-02-22 04:12:00,
2013-02-21 22:17:00,20.8,-17.1,28.97,North,11,0.0,3.6,17,0.00,,,0.00,VWS V13.01,2013-02-22 04:17:00,
2013-02-21 22:22:00,20.7,-19.7,28.97,NNE,24,2.2,3.6,15,0.00,,,0.00,VWS V13.01,2013-02-22 04:22:00,
2013-02-21 22:27:00,21.0,-16.9,28.97,NNE,26,2.7,4.9,17,0.00,,,0.00,VWS V13.01,2013-02-22 04:27:00,
2013-02-21 22:32:00,21.2,-16.8,28.97,North,7,3.6,4.9,17,0.00,,,0.00,VWS V13.01,2013-02-22 04:32:00,
2013-02-21 22:37:00,21.2,-16.8,28.97,North,0,6.3,6.3,17,0.00,,,0.00,VWS V13.01,2013-02-22 04:37:00,
2013-02-21 22:42:00,21.2,-16.8,28.94,NE,54,2.7,3.6,17,0.00,,,0.00,VWS V13.01,2013-02-22 04:42:00,
2013-02-21 22:47:00,21.4,-16.6,28.94,NNE,19,4.9,5.8,17,0.00,,,0.00,VWS V13.01,2013-02-22 04:47:00,
2013-02-21 22:52:00,21.4,-16.6,28.94,NNE,33,4.0,6.7,17,0.00,,,0.00,VWS V13.01,2013-02-22 04:52:00,
2013-02-21 22:57:00,21.4,-16.6,28.94,NNE,15,4.0,4.0,17,0.00,,,0.00,VWS V13.01,2013-02-22 04:57:00,
2013-02-21 23:00:00,21.2,-16.8,28.94,North,357,2.7,2.7,17,0.00,,,0.00,VWS V13.01,2013-02-22 05:00:00,
2013-02-21 23:02:00,21.2,-16.8,28.94,NE,36,4.5,4.5,17,0.00,,,0.00,VWS V13.01,2013-02-22 05:02:00,
2013-02-21 23:07:00,21.2,-16.8,28.94,NE,41,5.4,6.3,17,0.00,,,0.00,VWS V13.01,2013-02-22 05:07:00,
2013-02-21 23:12:00,21.0,-16.9,28.94,NE,36,6.7,6.7,17,0.00,,,0.00,VWS V13.01,2013-02-22 05:12:00,
2013-02-21 23:17:00,21.0,-16.9,28.94,North,357,5.8,10.1,17,0.00,,,0.00,VWS V13.01,2013-02-22 05:17:00,
2013-02-21 23:22:00,20.8,-17.1,28.94,NNE,25,4.0,4.0,17,0.00,,,0.00,VWS V13.01,2013-02-22 05:22:00,
2013-02-21 23:27:00,20.8,-17.1,28.94,NNE,22,4.9,4.9,17,0.00,,,0.00,VWS V13.01,2013-02-22 05:27:00,
2013-02-21 23:32:00,20.7,-17.2,28.94,NNE,17,4.0,8.7,17,0.00,,,0.00,VWS V13.01,2013-02-22 05:32:00,
2013-02-21 23:37:00,20.7,-17.2,28.94,North,353,6.3,6.3,17,0.00,,,0.00,VWS V13.01,2013-02-22 05:37:00,
2013-02-21 23:42:00,20.5,-17.4,28.94,ENE,62,5.4,7.6,17,0.00,,,0.00,VWS V13.01,2013-02-22 05:42:00,
2013-02-21 23:47:00,20.5,-17.4,28.94,NE,35,8.1,8.1,17,0.00,,,0.00,VWS V13.01,2013-02-22 05:47:00,
2013-02-21 23:52:00,20.5,-17.4,28.94,NNE,22,5.4,8.3,17,0.00,,,0.00,VWS V13.01,2013-02-22 05:52:00,
2013-02-21 23:57:00,20.5,-17.4,28.94,NE,34,7.6,8.3,17,0.00,,,0.00,VWS V13.01,2013-02-22 05:57:00,